Terminal Aerodrome Forecast
Issued by NWS

Home | Current Version | Previous Version | Text Only | Print | Product List | Glossary Off
Versions: 1 2 3 4 5 6 7 8 9 10 11 12 13 14 15 16 17 18 19

000
FTUS43 KTOP 160500
TAFFOE
TAF
KFOE 160520Z 1606/1706 12006KT 6SM BR BKN008
      TEMPO 1606/1610 3SM BR SCT008
     FM161430 13008KT 5SM BR OVC013
     FM161600 13010KT P6SM SCT040=

USA.gov is the U.S. government's official web portal to all federal, state and local government web resources and services.